^^
Saratoga-Weather Station Historical Data
Daily Summary for May 8, 2021 Units:  Metric    English   Both
Daily Weekly Monthly Yearly Custom
  High: Low: Average:
Temperature: 28.6 °C 14.4 °C 20.5 °C
Dew Point: 15.7 °C 12.6 °C 13.9 °C
Humidity: 90% 39% 69%
Wind Speed: 11.1km/h 0km/h 1.2km/h
Wind Gust: 12.9km/h - -
Wind- - ESE
Pressure: 1018.3 hPa 1010.8 hPa -
Precipitation: 0.0 mm    
Historical Graphs
 
 
Tabular Data for May 8, 2021
Time Temperature Dew Point Pressure Wind Wind Speed Wind Gust Humidity Rainfall Rate (Hourly) solar
00:04 17.1 °C 14 °C 1018.3 hPa Calm     82% 0.0 mm 0 W/m2
00:09 17.1 °C 14 °C 1018.3 hPa Calm     82% 0.0 mm 0 W/m2
00:14 16.9 °C 13.8 °C 1018.3 hPa Calm     82% 0.0 mm 0 W/m2
00:19 16.9 °C 13.8 °C 1018.3 hPa Calm   1.6 km/h 82% 0.0 mm 0 W/m2
00:24 16.9 °C 13.8 °C 1018.3 hPa Calm     82% 0.0 mm 0 W/m2
00:29 16.8 °C 13.7 °C 1018.3 hPa SE 3.2 km/h 3.2 km/h 82% 0.0 mm 0 W/m2
00:34 16.8 °C 13.7 °C 1018.3 hPa Calm     82% 0.0 mm 0 W/m2
00:39 16.8 °C 13.7 °C 1018.3 hPa SE 1.4 km/h 3.2 km/h 82% 0.0 mm 0 W/m2
00:44 16.8 °C 13.7 °C 1018.3 hPa SE 1.4 km/h 1.6 km/h 82% 0.0 mm 0 W/m2
00:49 16.8 °C 13.7 °C 1018.0 hPa Calm     82% 0.0 mm 0 W/m2
00:54 16.8 °C 13.7 °C 1018.0 hPa Calm     82% 0.0 mm 0 W/m2
00:59 16.7 °C 13.6 °C 1018.0 hPa Calm     82% 0.0 mm 0 W/m2
01:04 16.7 °C 13.8 °C 1018.0 hPa Calm     83% 0.0 mm 0 W/m2
01:10 16.7 °C 13.8 °C 1018.0 hPa Calm     83% 0.0 mm 0 W/m2
01:15 16.6 °C 13.7 °C 1018.0 hPa Calm     83% 0.0 mm 0 W/m2
01:20 16.6 °C 13.7 °C 1018.0 hPa Calm     83% 0.0 mm 0 W/m2
01:25 16.6 °C 13.7 °C 1017.6 hPa Calm     83% 0.0 mm 0 W/m2
01:30 16.5 °C 13.6 °C 1017.6 hPa Calm     83% 0.0 mm 0 W/m2
01:35 16.4 °C 13.5 °C 1017.6 hPa Calm     83% 0.0 mm 0 W/m2
01:40 16.3 °C 13.4 °C 1018.0 hPa Calm     83% 0.0 mm 0 W/m2
01:45 16.3 °C 13.6 °C 1018.0 hPa Calm     84% 0.0 mm 0 W/m2
01:50 16.2 °C 13.5 °C 1018.0 hPa Calm     84% 0.0 mm 0 W/m2
01:55 16.2 °C 13.5 °C 1018.0 hPa Calm     84% 0.0 mm 0 W/m2
02:00 16.1 °C 13.6 °C 1017.6 hPa Calm     85% 0.0 mm 0 W/m2
02:05 16.1 °C 13.6 °C 1017.6 hPa Calm     85% 0.0 mm 0 W/m2
02:10 16 °C 13.5 °C 1017.6 hPa Calm     85% 0.0 mm 0 W/m2
02:15 15.9 °C 13.4 °C 1017.6 hPa Calm     85% 0.0 mm 0 W/m2
02:20 15.8 °C 13.5 °C 1017.6 hPa Calm     86% 0.0 mm 0 W/m2
02:25 15.7 °C 13.4 °C 1017.6 hPa Calm     86% 0.0 mm 0 W/m2
02:30 15.7 °C 13.5 °C 1017.6 hPa Calm     87% 0.0 mm 0 W/m2
02:35 15.7 °C 13.5 °C 1017.6 hPa Calm     87% 0.0 mm 0 W/m2
02:40 15.6 °C 13.4 °C 1017.6 hPa Calm     87% 0.0 mm 0 W/m2
02:45 15.6 °C 13.4 °C 1017.6 hPa Calm     87% 0.0 mm 0 W/m2
02:50 15.5 °C 13.3 °C 1017.6 hPa Calm     87% 0.0 mm 0 W/m2
02:55 15.4 °C 13.2 °C 1017.3 hPa Calm     87% 0.0 mm 0 W/m2
03:00 15.4 °C 13.4 °C 1017.3 hPa Calm     88% 0.0 mm 0 W/m2
03:05 15.3 °C 13.3 °C 1017.6 hPa Calm     88% 0.0 mm 0 W/m2
03:10 15.3 °C 13.3 °C 1017.3 hPa Calm     88% 0.0 mm 0 W/m2
03:15 15.3 °C 13.3 °C 1017.3 hPa Calm     88% 0.0 mm 0 W/m2
03:20 15.2 °C 13.4 °C 1017.3 hPa Calm     89% 0.0 mm 0 W/m2
03:25 15.2 °C 13.4 °C 1017.3 hPa Calm     89% 0.0 mm 0 W/m2
03:30 15.2 °C 13.4 °C 1017.3 hPa Calm     89% 0.0 mm 0 W/m2
03:35 15.2 °C 13.4 °C 1017.3 hPa Calm     89% 0.0 mm 0 W/m2
03:40 15.2 °C 13.4 °C 1017.3 hPa Calm     89% 0.0 mm 0 W/m2
03:45 15.1 °C 13.3 °C 1016.9 hPa Calm     89% 0.0 mm 0 W/m2
03:50 15.1 °C 13.3 °C 1016.9 hPa Calm     89% 0.0 mm 0 W/m2
03:55 15.1 °C 13.3 °C 1016.9 hPa Calm     89% 0.0 mm 0 W/m2
04:00 15.1 °C 13.3 °C 1016.9 hPa Calm     89% 0.0 mm 0 W/m2
04:05 15.1 °C 13.3 °C 1016.9 hPa Calm     89% 0.0 mm 0 W/m2
04:10 15.1 °C 13.3 °C 1016.9 hPa Calm     89% 0.0 mm 0 W/m2
04:15 15 °C 13.2 °C 1016.9 hPa Calm     89% 0.0 mm 0 W/m2
04:20 15 °C 13.2 °C 1016.9 hPa Calm     89% 0.0 mm 0 W/m2
04:25 15 °C 13.2 °C 1016.9 hPa Calm     89% 0.0 mm 0 W/m2
04:30 14.9 °C 13.1 °C 1016.9 hPa Calm     89% 0.0 mm 0 W/m2
04:35 14.9 °C 13.1 °C 1016.6 hPa Calm     89% 0.0 mm 0 W/m2
04:40 15 °C 13.2 °C 1016.9 hPa Calm     89% 0.0 mm 0 W/m2
04:45 15 °C 13.2 °C 1016.6 hPa Calm     89% 0.0 mm 0 W/m2
04:50 14.9 °C 13.1 °C 1016.6 hPa Calm     89% 0.0 mm 0 W/m2
04:55 14.9 °C 13.1 °C 1016.6 hPa Calm     89% 0.0 mm 0 W/m2
05:00 14.9 °C 13.1 °C 1016.6 hPa Calm     89% 0.0 mm 0 W/m2
05:05 14.9 °C 13.1 °C 1016.6 hPa Calm     89% 0.0 mm 0 W/m2
05:10 14.9 °C 13.1 °C 1016.6 hPa Calm     89% 0.0 mm 0 W/m2
05:15 14.9 °C 13.1 °C 1016.6 hPa Calm     89% 0.0 mm 0 W/m2
05:20 14.9 °C 13.1 °C 1016.6 hPa Calm     89% 0.0 mm 0 W/m2
05:25 14.9 °C 13.1 °C 1016.6 hPa Calm     89% 0.0 mm 0 W/m2
05:30 14.9 °C 12.9 °C 1016.6 hPa Calm     88% 0.0 mm 0 W/m2
05:35 14.9 °C 12.9 °C 1016.6 hPa Calm     88% 0.0 mm 0 W/m2
05:40 14.9 °C 12.9 °C 1016.6 hPa Calm     88% 0.0 mm 0 W/m2
05:45 14.9 °C 12.9 °C 1016.6 hPa Calm     88% 0.0 mm 0 W/m2
05:50 14.9 °C 13.1 °C 1016.6 hPa Calm     89% 0.0 mm 0 W/m2
05:55 14.9 °C 13.1 °C 1016.3 hPa ESE 4.7 km/h 6.4 km/h 89% 0.0 mm 0 W/m2
06:00 15 °C 13 °C 1016.3 hPa Calm   1.6 km/h 88% 0.0 mm 0 W/m2
06:05 15 °C 13 °C 1016.3 hPa ESE 3.2 km/h 6.4 km/h 88% 0.0 mm 0 W/m2
06:10 14.9 °C 12.9 °C 1016.3 hPa Calm   1.6 km/h 88% 0.0 mm 0 W/m2
06:15 14.8 °C 12.8 °C 1016.3 hPa Calm     88% 0.0 mm 0 W/m2
06:20 14.8 °C 12.8 °C 1016.3 hPa Calm     88% 0.0 mm 0 W/m2
06:25 14.7 °C 12.7 °C 1016.3 hPa Calm   1.6 km/h 88% 0.0 mm 0 W/m2
06:30 14.6 °C 12.8 °C 1016.3 hPa Calm     89% 0.0 mm 0 W/m2
06:35 14.6 °C 12.8 °C 1016.3 hPa Calm   3.2 km/h 89% 0.0 mm 0 W/m2
06:40 14.5 °C 12.7 °C 1016.3 hPa Calm     89% 0.0 mm 0 W/m2
06:46 14.4 °C 12.6 °C 1016.3 hPa Calm   3.2 km/h 89% 0.0 mm 0 W/m2
06:51 14.4 °C 12.6 °C 1016.3 hPa SE 1.4 km/h 3.2 km/h 89% 0.0 mm 0 W/m2
06:56 14.4 °C 12.8 °C 1016.3 hPa SE 1.4 km/h 1.6 km/h 90% 0.0 mm 0 W/m2
07:01 14.4 °C 12.8 °C 1016.3 hPa Calm   3.2 km/h 90% 0.0 mm 0 W/m2
07:06 14.4 °C 12.8 °C 1016.3 hPa SE 1.4 km/h 3.2 km/h 90% 0.0 mm 5 W/m2
07:11 14.4 °C 12.8 °C 1016.3 hPa Calm   3.2 km/h 90% 0.0 mm 5 W/m2
07:16 14.5 °C 12.7 °C 1016.3 hPa SE 3.2 km/h 3.2 km/h 89% 0.0 mm 9 W/m2
07:21 14.6 °C 12.8 °C 1016.3 hPa SE 1.4 km/h 3.2 km/h 89% 0.0 mm 11 W/m2
07:26 14.7 °C 12.9 °C 1016.3 hPa Calm   1.6 km/h 89% 0.0 mm 12 W/m2
07:31 14.8 °C 13 °C 1015.9 hPa SE 1.4 km/h 1.6 km/h 89% 0.0 mm 14 W/m2
07:36 14.9 °C 12.9 °C 1016.3 hPa SE 1.4 km/h 3.2 km/h 88% 0.0 mm 16 W/m2
07:41 14.9 °C 12.9 °C 1015.9 hPa Calm   1.6 km/h 88% 0.0 mm 18 W/m2
07:46 15 °C 13 °C 1015.9 hPa SE 1.4 km/h 3.2 km/h 88% 0.0 mm 19 W/m2
07:51 15.1 °C 13 °C 1015.9 hPa Calm     87% 0.0 mm 21 W/m2
07:56 15.2 °C 13 °C 1015.9 hPa SE 1.4 km/h 1.6 km/h 87% 0.0 mm 23 W/m2
08:01 15.2 °C 13 °C 1016.3 hPa Calm   1.6 km/h 87% 0.0 mm 25 W/m2
08:06 15.3 °C 13 °C 1015.9 hPa Calm   1.6 km/h 86% 0.0 mm 26 W/m2
08:11 15.4 °C 13.1 °C 1015.9 hPa Calm     86% 0.0 mm 28 W/m2
08:16 15.4 °C 13.1 °C 1015.9 hPa Calm   1.6 km/h 86% 0.0 mm 88 W/m2
08:21 15.6 °C 13.3 °C 1015.9 hPa Calm   1.6 km/h 86% 0.0 mm 109 W/m2
08:26 15.7 °C 13.2 °C 1015.9 hPa Calm     85% 0.0 mm 63 W/m2
08:31 15.8 °C 13.3 °C 1015.9 hPa Calm     85% 0.0 mm 102 W/m2
08:36 15.9 °C 13.4 °C 1015.9 hPa Calm     85% 0.0 mm 155 W/m2
08:41 16.1 °C 13.4 °C 1015.9 hPa Calm     84% 0.0 mm 165 W/m2
08:46 16.3 °C 13.4 °C 1015.9 hPa Calm     83% 0.0 mm 185 W/m2
08:51 16.6 °C 13.7 °C 1015.9 hPa Calm     83% 0.0 mm 200 W/m2
08:56 16.7 °C 13.6 °C 1015.9 hPa Calm     82% 0.0 mm 207 W/m2
09:01 16.9 °C 13.6 °C 1015.9 hPa Calm   1.6 km/h 81% 0.0 mm 42 W/m2
09:06 17.2 °C 13.7 °C 1015.9 hPa Calm   1.6 km/h 80% 0.0 mm 77 W/m2
09:11 17.4 °C 13.7 °C 1015.9 hPa SE 4.7 km/h 4.8 km/h 79% 0.0 mm 257 W/m2
09:16 17.7 °C 13.8 °C 1015.6 hPa East 3.2 km/h 4.8 km/h 78% 0.0 mm 274 W/m2
09:21 18 °C 13.9 °C 1015.6 hPa Calm   3.2 km/h 77% 0.0 mm 288 W/m2
09:26 18.3 °C 14 °C 1015.6 hPa Calm   1.6 km/h 76% 0.0 mm 301 W/m2
09:31 18.6 °C 14.1 °C 1015.6 hPa East 4.7 km/h 6.4 km/h 75% 0.0 mm 316 W/m2
09:36 18.7 °C 14 °C 1015.6 hPa Calm   4.8 km/h 74% 0.0 mm 329 W/m2
09:41 18.8 °C 13.9 °C 1015.6 hPa Calm   4.8 km/h 73% 0.0 mm 341 W/m2
09:46 19.1 °C 14.1 °C 1015.2 hPa NNW 1.4 km/h 6.4 km/h 73% 0.0 mm 357 W/m2
09:51 19.2 °C 14 °C 1015.2 hPa NNE 1.4 km/h 8 km/h 72% 0.0 mm 367 W/m2
09:56 19.3 °C 14.3 °C 1015.2 hPa Calm   3.2 km/h 73% 0.0 mm 385 W/m2
10:01 19.6 °C 14.6 °C 1015.2 hPa Calm   8 km/h 73% 0.0 mm 397 W/m2
10:06 19.9 °C 14.5 °C 1015.2 hPa ENE 4.7 km/h 6.4 km/h 71% 0.0 mm 410 W/m2
10:11 20.1 °C 14.5 °C 1015.2 hPa Calm   3.2 km/h 70% 0.0 mm 424 W/m2
10:16 20.3 °C 14.6 °C 1015.2 hPa ENE 4.7 km/h 4.8 km/h 70% 0.0 mm 438 W/m2
10:21 20.6 °C 14.7 °C 1015.2 hPa NE 4.7 km/h 6.4 km/h 69% 0.0 mm 448 W/m2
10:26 20.5 °C 14.4 °C 1015.2 hPa Calm   8 km/h 68% 0.0 mm 459 W/m2
10:31 20.6 °C 14.9 °C 1015.2 hPa ENE 6.4 km/h 8 km/h 70% 0.0 mm 475 W/m2
10:36 20.7 °C 14.6 °C 1015.2 hPa SE 4.7 km/h 4.8 km/h 68% 0.0 mm 483 W/m2
10:41 20.9 °C 14.8 °C 1015.2 hPa East 3.2 km/h 6.4 km/h 68% 0.0 mm 497 W/m2
10:46 21.1 °C 15 °C 1015.2 hPa North 1.4 km/h 6.4 km/h 68% 0.0 mm 504 W/m2
10:51 21.3 °C 15.2 °C 1015.2 hPa East 3.2 km/h 4.8 km/h 68% 0.0 mm 513 W/m2
10:56 21.6 °C 15 °C 1014.9 hPa ENE 4.7 km/h 8 km/h 66% 0.0 mm 527 W/m2
11:01 21.8 °C 14.7 °C 1014.9 hPa ENE 11.1 km/h 11.3 km/h 64% 0.0 mm 536 W/m2
11:06 21.9 °C 15 °C 1014.9 hPa North 1.4 km/h 6.4 km/h 65% 0.0 mm 545 W/m2
11:11 22.1 °C 15 °C 1014.9 hPa ESE 9.7 km/h 9.7 km/h 64% 0.0 mm 557 W/m2
11:16 22.4 °C 14.8 °C 1014.9 hPa East 4.7 km/h 4.8 km/h 62% 0.0 mm 570 W/m2
11:21 22.7 °C 15 °C 1014.9 hPa NE 3.2 km/h 3.2 km/h 62% 0.0 mm 578 W/m2
11:26 22.9 °C 14.7 °C 1014.9 hPa NE 1.4 km/h 4.8 km/h 60% 0.0 mm 585 W/m2
11:31 23.1 °C 14.6 °C 1014.9 hPa East 3.2 km/h 4.8 km/h 59% 0.0 mm 596 W/m2
11:36 23.2 °C 14.5 °C 1014.9 hPa Calm   8 km/h 58% 0.0 mm 606 W/m2
11:41 23.3 °C 14 °C 1014.6 hPa East 1.4 km/h 6.4 km/h 56% 0.0 mm 615 W/m2
11:46 23.4 °C 14.1 °C 1014.6 hPa ENE 1.4 km/h 4.8 km/h 56% 0.0 mm 622 W/m2
11:51 23.7 °C 14.1 °C 1014.6 hPa ESE 4.7 km/h 12.9 km/h 55% 0.0 mm 633 W/m2
11:56 23.9 °C 14.6 °C 1014.6 hPa ENE 4.7 km/h 8 km/h 56% 0.0 mm 640 W/m2
12:01 24.2 °C 14.3 °C 1014.6 hPa East 4.7 km/h 12.9 km/h 54% 0.0 mm 647 W/m2
12:06 24.4 °C 14.2 °C 1014.6 hPa ENE 3.2 km/h 6.4 km/h 53% 0.0 mm 652 W/m2
12:11 24.7 °C 14.2 °C 1014.6 hPa South 1.4 km/h 4.8 km/h 52% 0.0 mm 659 W/m2
12:16 24.8 °C 13.4 °C 1014.6 hPa Calm   8 km/h 49% 0.0 mm 668 W/m2
12:21 24.9 °C 13.8 °C 1014.2 hPa East 1.4 km/h 12.9 km/h 50% 0.0 mm 671 W/m2
12:26 25.1 °C 14.3 °C 1014.2 hPa NE 3.2 km/h 4.8 km/h 51% 0.0 mm 679 W/m2
12:31 25.2 °C 14 °C 1014.2 hPa ENE 4.7 km/h 12.9 km/h 50% 0.0 mm 684 W/m2
12:36 25.3 °C 14.7 °C 1014.2 hPa NNW 1.4 km/h 4.8 km/h 52% 0.0 mm 686 W/m2
12:41 25.3 °C 15 °C 1014.2 hPa SW 1.4 km/h 4.8 km/h 53% 0.0 mm 689 W/m2
12:46 25.3 °C 14.4 °C 1014.2 hPa East 3.2 km/h 6.4 km/h 51% 0.0 mm 689 W/m2
12:52 25.6 °C 14.4 °C 1013.9 hPa ESE 3.2 km/h 11.3 km/h 50% 0.0 mm 694 W/m2
12:57 25.8 °C 14.6 °C 1013.9 hPa ENE 3.2 km/h 6.4 km/h 50% 0.0 mm 694 W/m2
13:02 25.9 °C 14.4 °C 1013.9 hPa ENE 3.2 km/h 11.3 km/h 49% 0.0 mm 694 W/m2
13:07 25.9 °C 14.4 °C 1013.5 hPa ESE 1.4 km/h 11.3 km/h 49% 0.0 mm 701 W/m2
13:12 26.1 °C 14.9 °C 1013.5 hPa ENE 4.7 km/h 12.9 km/h 50% 0.0 mm 701 W/m2
13:17 26.1 °C 13.9 °C 1013.5 hPa East 4.7 km/h 11.3 km/h 47% 0.0 mm 707 W/m2
13:22 26.1 °C 14.5 °C 1013.5 hPa NE 3.2 km/h 3.2 km/h 49% 0.0 mm 703 W/m2
13:27 26.1 °C 13.9 °C 1013.5 hPa SE 1.4 km/h 11.3 km/h 47% 0.0 mm 705 W/m2
13:32 26.2 °C 14.3 °C 1013.5 hPa East 7.9 km/h 9.7 km/h 48% 0.0 mm 703 W/m2
13:37 26.3 °C 14.1 °C 1013.5 hPa ESE 1.4 km/h 12.9 km/h 47% 0.0 mm 707 W/m2
13:42 26.3 °C 14.4 °C 1013.5 hPa NE 1.4 km/h 8 km/h 48% 0.0 mm 703 W/m2
13:47 26.6 °C 14.7 °C 1013.5 hPa NE 4.7 km/h 6.4 km/h 48% 0.0 mm 707 W/m2
13:52 26.8 °C 14.2 °C 1013.5 hPa SE 1.4 km/h 3.2 km/h 46% 0.0 mm 703 W/m2
13:57 26.8 °C 13.9 °C 1013.5 hPa SE 4.7 km/h 6.4 km/h 45% 0.0 mm 705 W/m2
14:02 26.9 °C 14.6 °C 1013.2 hPa ENE 4.7 km/h 11.3 km/h 47% 0.0 mm 707 W/m2
14:07 26.9 °C 14.6 °C 1013.2 hPa ESE 1.4 km/h 3.2 km/h 47% 0.0 mm 698 W/m2
14:12 26.9 °C 13.6 °C 1013.2 hPa East 4.7 km/h 11.3 km/h 44% 0.0 mm 700 W/m2
14:17 27 °C 14.1 °C 1013.2 hPa NW 6.4 km/h 8 km/h 45% 0.0 mm 703 W/m2
14:22 27 °C 14.1 °C 1013.2 hPa East 1.4 km/h 3.2 km/h 45% 0.0 mm 696 W/m2
14:27 27 °C 14.1 °C 1012.9 hPa East 4.7 km/h 4.8 km/h 45% 0.0 mm 694 W/m2
14:32 27.2 °C 13.9 °C 1012.9 hPa NE 4.7 km/h 4.8 km/h 44% 0.0 mm 687 W/m2
14:37 27.4 °C 14.1 °C 1012.9 hPa NNE 3.2 km/h 6.4 km/h 44% 0.0 mm 691 W/m2
14:42 27.4 °C 13.7 °C 1012.9 hPa ESE 3.2 km/h 8 km/h 43% 0.0 mm 700 W/m2
14:47 27.4 °C 14.4 °C 1012.9 hPa North 1.4 km/h 3.2 km/h 45% 0.0 mm 712 W/m2
14:52 27.4 °C 14.1 °C 1012.9 hPa ENE 6.4 km/h 8 km/h 44% 0.0 mm 417 W/m2
14:57 27.3 °C 13.6 °C 1012.9 hPa Calm   3.2 km/h 43% 0.0 mm 717 W/m2
15:02 27.2 °C 14.6 °C 1012.9 hPa Calm   3.2 km/h 46% 0.0 mm 387 W/m2
15:07 27.4 °C 14.1 °C 1012.5 hPa NE 3.2 km/h 11.3 km/h 44% 0.0 mm 677 W/m2
15:12 27.6 °C 13.5 °C 1012.5 hPa NNW 1.4 km/h 8 km/h 42% 0.0 mm 649 W/m2
15:17 27.7 °C 15.4 °C 1012.5 hPa ENE 1.4 km/h 4.8 km/h 47% 0.0 mm 640 W/m2
15:22 27.8 °C 13.7 °C 1012.5 hPa ENE 3.2 km/h 11.3 km/h 42% 0.0 mm 624 W/m2
15:27 27.9 °C 13.8 °C 1012.5 hPa SE 1.4 km/h 8 km/h 42% 0.0 mm 633 W/m2
15:32 27.9 °C 14.2 °C 1012.5 hPa Calm   1.6 km/h 43% 0.0 mm 621 W/m2
15:37 27.8 °C 14.8 °C 1012.2 hPa NW 1.4 km/h 4.8 km/h 45% 0.0 mm 610 W/m2
15:42 27.9 °C 14.2 °C 1012.2 hPa ESE 1.4 km/h 6.4 km/h 43% 0.0 mm 599 W/m2
15:47 27.9 °C 14.5 °C 1012.2 hPa East 4.7 km/h 4.8 km/h 44% 0.0 mm 601 W/m2
15:52 28.1 °C 14.3 °C 1012.2 hPa SE 3.2 km/h 3.2 km/h 43% 0.0 mm 599 W/m2
15:57 28.1 °C 14 °C 1012.2 hPa NE 4.7 km/h 11.3 km/h 42% 0.0 mm 580 W/m2
16:02 28.1 °C 13.6 °C 1011.9 hPa ESE 1.4 km/h 4.8 km/h 41% 0.0 mm 575 W/m2
16:07 28.2 °C 14.8 °C 1011.9 hPa ESE 1.4 km/h 3.2 km/h 44% 0.0 mm 561 W/m2
16:12 28.3 °C 14.5 °C 1011.9 hPa ESE 3.2 km/h 4.8 km/h 43% 0.0 mm 554 W/m2
16:17 28.3 °C 14.5 °C 1011.9 hPa NE 6.4 km/h 6.4 km/h 43% 0.0 mm 548 W/m2
16:22 28.6 °C 13.3 °C 1011.9 hPa ENE 4.7 km/h 6.4 km/h 39% 0.0 mm 534 W/m2
16:27 28.5 °C 13.6 °C 1011.9 hPa East 1.4 km/h 6.4 km/h 40% 0.0 mm 526 W/m2
16:32 28.5 °C 13.6 °C 1011.5 hPa ENE 1.4 km/h 3.2 km/h 40% 0.0 mm 520 W/m2
16:37 28.6 °C 14.8 °C 1011.5 hPa ENE 6.4 km/h 6.4 km/h 43% 0.0 mm 508 W/m2
16:42 28.6 °C 14.1 °C 1011.5 hPa NNW 3.2 km/h 4.8 km/h 41% 0.0 mm 434 W/m2
16:47 28.6 °C 14.4 °C 1011.2 hPa SSE 1.4 km/h 6.4 km/h 42% 0.0 mm 482 W/m2
16:52 28.4 °C 14.6 °C 1011.2 hPa ESE 3.2 km/h 6.4 km/h 43% 0.0 mm 461 W/m2
16:57 28.3 °C 14.2 °C 1011.2 hPa East 1.4 km/h 4.8 km/h 42% 0.0 mm 459 W/m2
17:02 28.2 °C 13.3 °C 1011.2 hPa NNE 7.9 km/h 8 km/h 40% 0.0 mm 390 W/m2
17:07 28.1 °C 14.3 °C 1011.2 hPa Calm   4.8 km/h 43% 0.0 mm 404 W/m2
17:12 28.1 °C 14.7 °C 1011.2 hPa Calm   8 km/h 44% 0.0 mm 415 W/m2
17:17 28 °C 14.3 °C 1011.2 hPa ESE 3.2 km/h 6.4 km/h 43% 0.0 mm 387 W/m2
17:22 27.9 °C 14.2 °C 1011.2 hPa South 3.2 km/h 4.8 km/h 43% 0.0 mm 364 W/m2
17:27 27.8 °C 14.8 °C 1011.2 hPa Calm   4.8 km/h 45% 0.0 mm 383 W/m2
17:32 27.8 °C 14.1 °C 1011.2 hPa WNW 3.2 km/h 4.8 km/h 43% 0.0 mm 374 W/m2
17:37 27.8 °C 14.8 °C 1011.2 hPa Calm   8 km/h 45% 0.0 mm 362 W/m2
17:42 27.8 °C 14.4 °C 1011.2 hPa East 4.7 km/h 4.8 km/h 44% 0.0 mm 346 W/m2
17:47 27.8 °C 14.8 °C 1010.8 hPa Calm   3.2 km/h 45% 0.0 mm 334 W/m2
17:52 27.9 °C 14.5 °C 1010.8 hPa Calm   1.6 km/h 44% 0.0 mm 318 W/m2
17:57 27.9 °C 14.5 °C 1010.8 hPa SE 1.4 km/h 3.2 km/h 44% 0.0 mm 308 W/m2
18:02 27.9 °C 15.2 °C 1010.8 hPa SE 1.4 km/h 1.6 km/h 46% 0.0 mm 290 W/m2
18:07 27.7 °C 15.4 °C 1010.8 hPa Calm   3.2 km/h 47% 0.0 mm 272 W/m2
18:12 27.7 °C 15.4 °C 1010.8 hPa Calm   3.2 km/h 47% 0.0 mm 258 W/m2
18:17 27.7 °C 15.7 °C 1010.8 hPa Calm   3.2 km/h 48% 0.0 mm 246 W/m2
18:22 27.6 °C 15.3 °C 1010.8 hPa ESE 1.4 km/h 3.2 km/h 47% 0.0 mm 221 W/m2
18:27 27.6 °C 15.3 °C 1010.8 hPa Calm   3.2 km/h 47% 0.0 mm 200 W/m2
18:33 27.4 °C 15.4 °C 1010.8 hPa SE 1.4 km/h 3.2 km/h 48% 0.0 mm 193 W/m2
18:38 27.2 °C 15.2 °C 1010.8 hPa Calm   3.2 km/h 48% 0.0 mm 186 W/m2
18:43 27 °C 15.1 °C 1010.8 hPa Calm   3.2 km/h 48% 0.0 mm 174 W/m2
18:48 26.7 °C 14.8 °C 1010.8 hPa South 1.4 km/h 3.2 km/h 48% 0.0 mm 160 W/m2
18:53 26.4 °C 15.4 °C 1010.8 hPa South 1.4 km/h 3.2 km/h 51% 0.0 mm 142 W/m2
18:58 26.2 °C 15.6 °C 1010.8 hPa South 1.4 km/h 1.6 km/h 52% 0.0 mm 128 W/m2
19:03 25.8 °C 14.9 °C 1010.8 hPa South 3.2 km/h 3.2 km/h 51% 0.0 mm 113 W/m2
19:08 25.5 °C 14.9 °C 1010.8 hPa South 3.2 km/h 3.2 km/h 52% 0.0 mm 98 W/m2
19:13 25.2 °C 14.9 °C 1010.8 hPa South 1.4 km/h 1.6 km/h 53% 0.0 mm 83 W/m2
19:18 24.9 °C 15 °C 1010.8 hPa South 1.4 km/h 3.2 km/h 54% 0.0 mm 37 W/m2
19:23 24.6 °C 15 °C 1010.8 hPa Calm   3.2 km/h 55% 0.0 mm 28 W/m2
19:28 24.2 °C 14.9 °C 1010.8 hPa South 3.2 km/h 3.2 km/h 56% 0.0 mm 25 W/m2
19:33 23.7 °C 14.7 °C 1010.8 hPa South 1.4 km/h 3.2 km/h 57% 0.0 mm 23 W/m2
19:38 23.3 °C 14.6 °C 1010.8 hPa SW 1.4 km/h 3.2 km/h 58% 0.0 mm 21 W/m2
19:43 22.9 °C 14.7 °C 1010.8 hPa Calm   3.2 km/h 60% 0.0 mm 18 W/m2
19:48 22.7 °C 14.8 °C 1010.8 hPa SW 1.4 km/h 3.2 km/h 61% 0.0 mm 14 W/m2
19:53 22.6 °C 14.9 °C 1010.8 hPa Calm   1.6 km/h 62% 0.0 mm 11 W/m2
19:58 22.3 °C 14.7 °C 1010.8 hPa Calm   3.2 km/h 62% 0.0 mm 7 W/m2
20:03 22.1 °C 14.7 °C 1010.8 hPa Calm   1.6 km/h 63% 0.0 mm 5 W/m2
20:08 21.8 °C 14.4 °C 1010.8 hPa Calm     63% 0.0 mm 0 W/m2
20:13 21.7 °C 14.6 °C 1010.8 hPa Calm     64% 0.0 mm 0 W/m2
20:18 21.4 °C 14.3 °C 1010.8 hPa SW 1.4 km/h 3.2 km/h 64% 0.0 mm 0 W/m2
20:23 21.2 °C 14.4 °C 1010.8 hPa Calm   1.6 km/h 65% 0.0 mm 0 W/m2
20:28 21 °C 14.4 °C 1010.8 hPa SW 1.4 km/h 1.6 km/h 66% 0.0 mm 0 W/m2
20:33 20.8 °C 14.2 °C 1010.8 hPa Calm   1.6 km/h 66% 0.0 mm 0 W/m2
20:38 20.6 °C 14.3 °C 1010.8 hPa Calm   1.6 km/h 67% 0.0 mm 0 W/m2
20:43 20.4 °C 14.1 °C 1010.8 hPa SW 1.4 km/h 1.6 km/h 67% 0.0 mm 0 W/m2
20:48 20.3 °C 14.2 °C 1010.8 hPa Calm   1.6 km/h 68% 0.0 mm 0 W/m2
20:53 20.1 °C 14 °C 1011.2 hPa Calm     68% 0.0 mm 0 W/m2
20:58 20 °C 14.1 °C 1011.2 hPa SW 1.4 km/h 1.6 km/h 69% 0.0 mm 0 W/m2
21:03 19.8 °C 13.9 °C 1010.8 hPa Calm   1.6 km/h 69% 0.0 mm 0 W/m2
21:08 19.7 °C 14.1 °C 1010.8 hPa Calm   1.6 km/h 70% 0.0 mm 0 W/m2
21:13 19.6 °C 14 °C 1010.8 hPa Calm     70% 0.0 mm 0 W/m2
21:18 19.4 °C 14 °C 1010.8 hPa Calm   1.6 km/h 71% 0.0 mm 0 W/m2
21:23 19.3 °C 13.9 °C 1011.2 hPa Calm     71% 0.0 mm 0 W/m2
21:28 19.2 °C 14 °C 1011.2 hPa Calm     72% 0.0 mm 0 W/m2
21:33 19.1 °C 13.9 °C 1011.2 hPa Calm     72% 0.0 mm 0 W/m2
21:38 19 °C 14 °C 1010.8 hPa Calm     73% 0.0 mm 0 W/m2
21:43 18.8 °C 13.9 °C 1010.8 hPa Calm   1.6 km/h 73% 0.0 mm 0 W/m2
21:48 18.8 °C 13.9 °C 1011.2 hPa Calm     73% 0.0 mm 0 W/m2
21:53 18.7 °C 14 °C 1011.2 hPa Calm     74% 0.0 mm 0 W/m2
22:03 18.5 °C 14 °C 1011.2 hPa Calm     75% 0.0 mm 0 W/m2
22:08 18.4 °C 13.9 °C 1011.2 hPa Calm     75% 0.0 mm 0 W/m2
22:13 18.3 °C 13.8 °C 1011.2 hPa Calm     75% 0.0 mm 0 W/m2
22:18 18.2 °C 13.7 °C 1010.8 hPa Calm     75% 0.0 mm 0 W/m2
22:23 18.2 °C 13.9 °C 1010.8 hPa Calm     76% 0.0 mm 0 W/m2
22:28 18.1 °C 13.8 °C 1010.8 hPa Calm     76% 0.0 mm 0 W/m2
22:33 18.1 °C 14 °C 1010.8 hPa Calm     77% 0.0 mm 0 W/m2
22:38 17.9 °C 13.8 °C 1010.8 hPa Calm     77% 0.0 mm 0 W/m2
22:43 17.9 °C 13.8 °C 1010.8 hPa Calm     77% 0.0 mm 0 W/m2
22:48 17.8 °C 13.7 °C 1010.8 hPa Calm     77% 0.0 mm 0 W/m2
22:53 17.8 °C 13.9 °C 1010.8 hPa Calm     78% 0.0 mm 0 W/m2
22:58 17.7 °C 13.8 °C 1010.8 hPa Calm     78% 0.0 mm 0 W/m2
23:03 17.6 °C 13.7 °C 1010.8 hPa Calm     78% 0.0 mm 0 W/m2
23:08 17.5 °C 13.8 °C 1010.8 hPa Calm     79% 0.0 mm 0 W/m2
23:13 17.4 °C 13.7 °C 1010.8 hPa Calm     79% 0.0 mm 0 W/m2
23:18 17.4 °C 13.7 °C 1010.8 hPa Calm     79% 0.0 mm 0 W/m2
23:23 17.3 °C 13.6 °C 1010.8 hPa Calm     79% 0.0 mm 0 W/m2
23:28 17.2 °C 13.7 °C 1010.8 hPa Calm     80% 0.0 mm 0 W/m2
23:33 17.2 °C 13.7 °C 1010.8 hPa Calm     80% 0.0 mm 0 W/m2
23:38 17.1 °C 13.6 °C 1010.8 hPa Calm     80% 0.0 mm 0 W/m2
23:43 17.1 °C 13.8 °C 1010.8 hPa Calm     81% 0.0 mm 0 W/m2
23:48 17.1 °C 13.8 °C 1010.8 hPa Calm     81% 0.0 mm 0 W/m2
23:53 17 °C 13.7 °C 1010.8 hPa Calm     81% 0.0 mm 0 W/m2
23:58 16.9 °C 13.8 °C 1010.8 hPa Calm     82% 0.0 mm 0 W/m2
Juneau County Weather
Compliments of Weather Underground - 4 mb